createdAt,value
2022-12-18T00:01:44.464Z,9.65
2022-12-18T00:04:24.047Z,10.00
2022-12-18T00:06:52.364Z,9.35
2022-12-18T00:09:20.165Z,9.15
2022-12-18T00:11:47.686Z,9.82
2022-12-18T00:14:15.570Z,9.10
2022-12-18T00:16:46.451Z,9.98
2022-12-18T00:19:15.359Z,10.07
2022-12-18T00:21:44.075Z,8.43
2022-12-18T00:24:12.247Z,9.02
2022-12-18T00:26:40.602Z,8.88
2022-12-18T00:29:12.832Z,11.20
2022-12-18T00:31:42.186Z,9.15
2022-12-18T00:34:14.881Z,9.05
2022-12-18T00:36:42.844Z,10.00
2022-12-18T00:39:12.909Z,9.05
2022-12-18T00:41:59.282Z,9.90
2022-12-18T00:44:26.833Z,9.25
2022-12-18T00:46:54.230Z,9.20
2022-12-18T00:49:22.017Z,9.80
2022-12-18T00:51:49.875Z,9.70
2022-12-18T00:54:17.891Z,9.52
2022-12-18T00:56:49.073Z,9.65
2022-12-18T00:59:19.739Z,9.65
2022-12-18T01:01:48.123Z,8.88
2022-12-18T01:04:16.592Z,9.77
2022-12-18T01:06:46.751Z,9.55
2022-12-18T01:09:15.011Z,10.23
2022-12-18T01:11:42.564Z,10.27
2022-12-18T01:14:11.900Z,8.88
2022-12-18T01:16:39.295Z,9.30
2022-12-18T01:19:06.971Z,9.98
2022-12-18T01:21:34.497Z,9.35
2022-12-18T01:24:05.961Z,9.30
2022-12-18T01:26:33.505Z,9.85
2022-12-18T01:29:01.091Z,10.02
2022-12-18T01:31:33.177Z,9.43
2022-12-18T01:34:05.302Z,10.60
2022-12-18T01:36:37.891Z,9.65
2022-12-18T01:39:12.224Z,9.68
2022-12-18T01:42:02.271Z,9.00
2022-12-18T01:44:49.829Z,10.52
2022-12-18T01:47:25.510Z,9.50
2022-12-18T01:49:54.236Z,9.90
2022-12-18T01:52:23.730Z,10.70
2022-12-18T01:54:53.476Z,11.32
2022-12-18T01:57:21.768Z,11.00
2022-12-18T01:59:52.174Z,11.27
2022-12-18T02:02:21.436Z,11.10
2022-12-18T02:04:49.728Z,11.80
2022-12-18T02:07:37.358Z,10.18
2022-12-18T02:10:16.782Z,10.55
2022-12-18T02:13:43.395Z,10.77
2022-12-18T02:17:03.566Z,9.73
2022-12-18T02:19:50.128Z,9.68
2022-12-18T02:22:55.917Z,10.25
2022-12-18T02:25:47.797Z,10.57
2022-12-18T02:28:20.378Z,10.00
2022-12-18T02:30:52.196Z,11.48
2022-12-18T02:33:22.323Z,9.60
2022-12-18T02:35:52.036Z,10.73
2022-12-18T02:38:20.882Z,10.80
2022-12-18T02:40:53.293Z,9.93
2022-12-18T02:43:21.264Z,9.80
2022-12-18T02:46:01.642Z,10.93
2022-12-18T02:48:35.196Z,10.95
2022-12-18T02:51:19.476Z,11.05
2022-12-18T02:53:57.702Z,12.90
2022-12-18T02:56:55.421Z,10.25
2022-12-18T02:59:48.325Z,10.60
2022-12-18T03:02:27.677Z,11.40
2022-12-18T03:05:03.861Z,10.70
2022-12-18T03:07:54.646Z,10.68
2022-12-18T03:10:28.748Z,11.35
2022-12-18T03:13:03.549Z,11.50
2022-12-18T03:15:49.210Z,11.57
2022-12-18T03:18:24.988Z,11.52
2022-12-18T03:20:57.613Z,11.60
2022-12-18T03:23:32.551Z,10.55
2022-12-18T03:26:07.698Z,11.43
2022-12-18T03:28:43.530Z,10.77
2022-12-18T03:31:14.153Z,11.20
2022-12-18T03:34:01.112Z,11.88
2022-12-18T03:36:38.641Z,11.48
2022-12-18T03:39:07.118Z,10.50
2022-12-18T03:41:58.671Z,10.82
2022-12-18T03:45:09.464Z,10.10
2022-12-18T03:47:52.204Z,11.50
2022-12-18T03:50:31.988Z,10.50
2022-12-18T03:53:34.285Z,12.15
2022-12-18T03:56:03.410Z,11.20
2022-12-18T03:58:38.785Z,10.55
2022-12-18T04:01:28.035Z,10.88
2022-12-18T04:03:58.022Z,11.20
2022-12-18T04:06:26.344Z,10.70
2022-12-18T04:08:54.426Z,11.13
2022-12-18T04:11:25.279Z,10.98
2022-12-18T04:13:58.564Z,10.70
2022-12-18T04:16:27.906Z,11.40
2022-12-18T04:19:00.418Z,10.65
2022-12-18T04:21:31.222Z,10.07
2022-12-18T04:23:59.060Z,11.65
2022-12-18T04:26:26.668Z,11.45
2022-12-18T04:29:04.911Z,11.80
2022-12-18T04:31:32.927Z,11.75
2022-12-18T04:34:00.457Z,10.57
2022-12-18T04:36:28.771Z,10.85
2022-12-18T04:38:57.186Z,11.13
2022-12-18T04:41:24.850Z,10.85
2022-12-18T04:43:54.188Z,11.40
2022-12-18T04:46:21.857Z,11.05
2022-12-18T04:48:49.695Z,11.43
2022-12-18T04:51:20.848Z,10.48
2022-12-18T04:56:19.279Z,9.30
2022-12-18T04:58:47.024Z,11.60
2022-12-18T05:01:16.141Z,9.27
2022-12-18T05:03:44.502Z,9.88
2022-12-18T05:08:39.690Z,12.73
2022-12-18T05:11:09.527Z,9.82
2022-12-18T05:16:32.804Z,9.82
2022-12-18T05:19:00.258Z,10.05
2022-12-18T05:21:27.870Z,10.27
2022-12-18T05:23:55.411Z,9.77
2022-12-18T05:26:23.109Z,9.05
2022-12-18T05:28:50.512Z,10.00
2022-12-18T05:31:18.344Z,9.73
2022-12-18T05:33:45.884Z,10.07
2022-12-18T05:36:13.701Z,9.50
2022-12-18T05:38:41.650Z,9.45
2022-12-18T05:41:10.280Z,9.50
2022-12-18T05:43:40.185Z,9.18
2022-12-18T05:46:16.974Z,10.35
2022-12-18T05:48:45.252Z,9.68
2022-12-18T05:51:16.017Z,9.63
2022-12-18T05:53:44.854Z,10.38
2022-12-18T05:56:15.997Z,10.70
2022-12-18T05:58:44.165Z,10.30
2022-12-18T06:01:15.272Z,11.10
2022-12-18T06:03:43.148Z,10.90
2022-12-18T06:06:23.420Z,11.05
2022-12-18T06:09:10.914Z,10.48
2022-12-18T06:11:38.698Z,10.35
2022-12-18T06:14:07.259Z,9.98
2022-12-18T06:16:34.906Z,10.55
2022-12-18T06:19:04.682Z,10.70
2022-12-18T06:21:33.241Z,10.25
2022-12-18T06:24:01.749Z,10.10
2022-12-18T06:26:29.337Z,11.20
2022-12-18T06:28:57.051Z,11.02
2022-12-18T06:31:25.559Z,11.00
2022-12-18T06:33:53.303Z,12.80
2022-12-18T06:36:22.235Z,11.27
2022-12-18T06:38:50.252Z,11.93
2022-12-18T06:41:33.989Z,11.90
2022-12-18T06:44:02.197Z,12.30
2022-12-18T06:46:29.644Z,12.43
2022-12-18T06:48:57.126Z,10.75
2022-12-18T06:51:25.688Z,12.38
2022-12-18T06:53:53.296Z,10.77
2022-12-18T06:56:20.718Z,12.00
2022-12-18T06:58:48.296Z,11.38
2022-12-18T07:01:15.859Z,11.02
2022-12-18T07:03:44.568Z,11.10
2022-12-18T07:06:20.434Z,11.45
2022-12-18T07:08:49.482Z,12.73
2022-12-18T07:11:18.012Z,11.70
2022-12-18T07:13:46.822Z,10.57
2022-12-18T07:16:24.907Z,10.52
2022-12-18T07:18:54.112Z,11.05
2022-12-18T07:21:22.568Z,10.40
2022-12-18T07:23:50.034Z,10.07
2022-12-18T07:26:19.824Z,9.93
2022-12-18T07:28:47.987Z,9.85
2022-12-18T07:31:21.613Z,10.65
2022-12-18T07:33:50.126Z,9.65
2022-12-18T07:36:18.019Z,10.43
2022-12-18T07:38:49.324Z,9.93
2022-12-18T07:41:17.310Z,9.77
2022-12-18T07:43:45.122Z,9.43
2022-12-18T07:46:17.030Z,9.68
2022-12-18T07:48:46.298Z,9.38
2022-12-18T07:51:18.483Z,9.20
2022-12-18T07:53:52.218Z,9.52
2022-12-18T07:56:30.455Z,9.73
2022-12-18T07:58:59.638Z,9.57
2022-12-18T08:03:54.685Z,9.30
2022-12-18T08:09:03.960Z,9.35
2022-12-18T08:11:31.430Z,9.35
2022-12-18T08:13:59.255Z,9.35
2022-12-18T08:16:27.148Z,11.20
2022-12-18T08:18:55.404Z,9.00
2022-12-18T08:21:26.528Z,9.90
2022-12-18T08:23:56.008Z,8.80
2022-12-18T08:26:24.756Z,10.35
2022-12-18T08:28:53.237Z,9.55
2022-12-18T08:33:53.804Z,8.15
2022-12-18T08:36:23.159Z,9.85
2022-12-18T08:38:51.950Z,9.52
2022-12-18T08:41:19.954Z,10.07
2022-12-18T08:44:06.633Z,9.25
2022-12-18T08:46:40.454Z,10.10
2022-12-18T08:49:08.899Z,9.63
2022-12-18T08:51:37.287Z,8.68
2022-12-18T08:54:06.419Z,11.13
2022-12-18T08:56:35.411Z,9.90
2022-12-18T08:59:03.480Z,9.85
2022-12-18T09:01:31.168Z,9.20
2022-12-18T09:03:59.427Z,9.85
2022-12-18T09:06:27.763Z,9.95
2022-12-18T09:08:55.250Z,10.35
2022-12-18T09:11:25.476Z,8.93
2022-12-18T09:13:54.095Z,9.65
2022-12-18T09:16:26.129Z,9.98
2022-12-18T09:19:00.922Z,9.52
2022-12-18T09:21:36.048Z,10.55
2022-12-18T09:24:08.686Z,9.38
2022-12-18T09:26:37.275Z,9.77
2022-12-18T09:29:05.891Z,10.90
2022-12-18T09:31:33.248Z,10.68
2022-12-18T09:34:01.078Z,10.00
2022-12-18T09:36:28.531Z,10.38
2022-12-18T09:38:55.973Z,9.93
2022-12-18T09:41:52.182Z,10.18
2022-12-18T09:44:22.764Z,10.10
2022-12-18T09:47:04.915Z,9.63
2022-12-18T09:49:39.110Z,9.75
2022-12-18T09:52:10.965Z,9.70
2022-12-18T09:54:54.853Z,10.45
2022-12-18T09:57:24.573Z,9.98
2022-12-18T09:59:58.134Z,11.05
2022-12-18T10:02:28.013Z,10.75
2022-12-18T10:05:17.107Z,10.60
2022-12-18T10:08:11.830Z,11.27
2022-12-18T10:10:43.587Z,10.27
2022-12-18T10:13:36.985Z,10.88
2022-12-18T10:16:10.472Z,10.95
2022-12-18T10:19:02.458Z,11.90
2022-12-18T10:21:54.403Z,10.75
2022-12-18T10:24:57.183Z,9.95
2022-12-18T10:27:30.032Z,10.70
2022-12-18T10:29:58.957Z,9.55
2022-12-18T10:32:29.326Z,9.80
2022-12-18T10:35:00.689Z,10.48
2022-12-18T10:37:31.268Z,9.90
2022-12-18T10:40:10.096Z,10.73
2022-12-18T10:42:37.754Z,10.18
2022-12-18T10:45:11.847Z,9.73
2022-12-18T10:47:45.229Z,10.55
2022-12-18T10:50:53.949Z,10.13
2022-12-18T10:53:23.048Z,10.50
2022-12-18T10:55:53.385Z,10.75
2022-12-18T10:58:30.228Z,11.77
2022-12-18T11:01:05.606Z,10.65
2022-12-18T11:03:45.146Z,10.73
2022-12-18T11:06:17.543Z,11.32
2022-12-18T11:09:13.869Z,10.60
2022-12-18T11:11:49.387Z,10.35
2022-12-18T11:14:27.865Z,10.65
2022-12-18T11:17:24.458Z,10.55
2022-12-18T11:19:53.448Z,9.80
2022-12-18T11:22:24.595Z,9.90
2022-12-18T11:27:50.756Z,9.23
2022-12-18T11:30:21.174Z,8.98
2022-12-18T11:32:52.305Z,9.43
2022-12-18T11:35:36.220Z,9.70
2022-12-18T11:38:24.083Z,10.00
2022-12-18T11:41:01.500Z,9.85
2022-12-18T11:43:35.224Z,10.50
2022-12-18T11:49:05.186Z,10.40
2022-12-18T11:51:46.391Z,10.48
2022-12-18T11:54:15.516Z,9.65
2022-12-18T11:57:12.958Z,9.93
2022-12-18T12:00:02.665Z,11.43
2022-12-18T12:03:17.832Z,9.98
2022-12-18T12:06:07.105Z,11.13
2022-12-18T12:08:34.801Z,11.75
2022-12-18T12:11:10.886Z,9.82
2022-12-18T12:13:41.749Z,9.75
2022-12-18T12:16:30.352Z,11.15
2022-12-18T12:19:27.810Z,9.73
2022-12-18T12:22:11.129Z,9.95
2022-12-18T12:24:59.868Z,10.60
2022-12-18T12:27:49.034Z,10.25
2022-12-18T12:31:04.085Z,10.35
2022-12-18T12:33:50.091Z,11.23
2022-12-18T12:36:44.432Z,10.23
2022-12-18T12:39:19.077Z,9.73
2022-12-18T12:42:08.286Z,10.43
2022-12-18T12:44:56.429Z,11.05
2022-12-18T12:47:29.844Z,11.25
2022-12-18T12:49:59.567Z,11.15
2022-12-18T12:52:41.317Z,10.68
2022-12-18T12:55:22.746Z,10.82
2022-12-18T12:58:04.520Z,11.02
2022-12-18T13:00:41.986Z,11.10
2022-12-18T13:03:33.831Z,11.40
2022-12-18T13:06:18.145Z,11.85
2022-12-18T13:09:01.281Z,12.10
2022-12-18T13:11:57.859Z,11.73
2022-12-18T13:14:45.939Z,11.82
2022-12-18T13:17:25.099Z,11.55
2022-12-18T13:20:05.179Z,11.82
2022-12-18T13:22:39.303Z,12.50
2022-12-18T13:25:39.157Z,12.55
2022-12-18T13:28:10.546Z,13.20
2022-12-18T13:30:44.773Z,11.68
2022-12-18T13:33:15.416Z,12.93
2022-12-18T13:35:54.964Z,13.20
2022-12-18T13:38:36.425Z,13.00
2022-12-18T13:43:48.178Z,13.32
2022-12-18T13:46:50.943Z,14.20
2022-12-18T13:49:25.206Z,12.32
2022-12-18T13:51:56.717Z,14.77
2022-12-18T13:54:44.231Z,12.77
2022-12-18T13:57:30.099Z,13.07
2022-12-18T13:59:58.973Z,13.23
2022-12-18T14:02:29.222Z,13.25
2022-12-18T14:04:56.930Z,13.32
2022-12-18T14:07:26.721Z,12.88
2022-12-18T14:10:18.607Z,12.75
2022-12-18T14:13:03.758Z,12.43
2022-12-18T14:15:45.651Z,12.32
2022-12-18T14:18:19.071Z,12.75
2022-12-18T14:20:52.631Z,13.38
2022-12-18T14:23:37.381Z,11.23
2022-12-18T14:26:30.484Z,13.30
2022-12-18T14:29:02.961Z,11.30
2022-12-18T14:31:32.974Z,11.20
2022-12-18T14:34:00.551Z,12.60
2022-12-18T14:36:30.019Z,11.60
2022-12-18T14:39:00.752Z,11.57
2022-12-18T14:41:29.803Z,11.70
2022-12-18T14:44:08.199Z,12.00
2022-12-18T14:46:41.439Z,12.27
2022-12-18T14:49:35.190Z,12.20
2022-12-18T14:52:06.098Z,11.20
2022-12-18T14:54:38.369Z,11.93
2022-12-18T14:59:51.226Z,12.68
2022-12-18T15:02:22.011Z,12.15
2022-12-18T15:05:17.974Z,12.73
2022-12-18T15:07:51.396Z,12.10
2022-12-18T15:10:27.610Z,12.90
2022-12-18T15:12:58.555Z,13.10
2022-12-18T15:15:38.117Z,13.02
2022-12-18T15:18:08.756Z,13.43
2022-12-18T15:20:46.104Z,13.52
2022-12-18T15:23:25.627Z,14.48
2022-12-18T15:26:02.541Z,14.82
2022-12-18T15:28:38.020Z,14.68
2022-12-18T15:31:16.570Z,13.55
2022-12-18T15:33:53.599Z,15.27
2022-12-18T15:36:26.888Z,14.90
2022-12-18T15:39:05.147Z,15.07
2022-12-18T15:44:28.068Z,15.43
2022-12-18T15:46:59.802Z,16.05
2022-12-18T15:49:27.411Z,15.70
2022-12-18T15:51:59.654Z,15.20
2022-12-18T15:54:46.336Z,14.88
2022-12-18T15:57:26.871Z,15.02
2022-12-18T16:00:00.176Z,14.25
2022-12-18T16:02:29.690Z,14.63
2022-12-18T16:04:57.753Z,14.95
2022-12-18T16:07:28.189Z,15.50
2022-12-18T16:10:00.369Z,15.20
2022-12-18T16:12:31.010Z,15.18
2022-12-18T16:14:58.693Z,15.30
2022-12-18T16:17:26.323Z,15.75
2022-12-18T16:19:53.776Z,16.25
2022-12-18T16:22:24.761Z,16.02
2022-12-18T16:24:53.674Z,15.82
2022-12-18T16:27:21.928Z,15.13
2022-12-18T16:29:49.814Z,15.18
2022-12-18T16:32:20.103Z,16.30
2022-12-18T16:34:48.234Z,17.33
2022-12-18T16:37:17.313Z,17.15
2022-12-18T16:39:45.434Z,15.95
2022-12-18T16:42:20.651Z,17.00
2022-12-18T16:44:49.751Z,15.90
2022-12-18T16:47:18.343Z,15.82
2022-12-18T16:49:46.585Z,15.43
2022-12-18T16:52:14.935Z,16.23
2022-12-18T16:54:42.418Z,16.27
2022-12-18T16:57:14.521Z,16.17
2022-12-18T16:59:42.470Z,16.70
2022-12-18T17:02:23.773Z,16.58
2022-12-18T17:04:56.121Z,15.45
2022-12-18T17:07:25.608Z,14.48
2022-12-18T17:09:54.483Z,15.85
2022-12-18T17:12:23.140Z,16.63
2022-12-18T17:19:49.849Z,15.63
2022-12-18T17:22:17.591Z,15.63
2022-12-18T17:24:45.381Z,15.75
2022-12-18T17:27:13.098Z,15.15
2022-12-18T17:29:46.861Z,15.48
2022-12-18T17:32:17.191Z,14.95
2022-12-18T17:34:45.014Z,16.50
2022-12-18T17:37:12.646Z,16.20
2022-12-18T17:39:40.197Z,14.18
2022-12-18T17:42:10.601Z,14.40
2022-12-18T17:44:43.071Z,15.20
2022-12-18T17:47:12.399Z,14.35
2022-12-18T17:49:40.340Z,15.68
2022-12-18T17:52:08.354Z,14.00
2022-12-18T17:54:39.934Z,13.63
2022-12-18T17:57:07.806Z,15.48
2022-12-18T17:59:35.268Z,14.38
2022-12-18T18:02:03.218Z,12.75
2022-12-18T18:04:30.825Z,12.23
2022-12-18T18:06:58.494Z,13.57
2022-12-18T18:09:26.709Z,12.65
2022-12-18T18:12:12.669Z,13.82
2022-12-18T18:14:40.596Z,12.82
2022-12-18T18:17:08.032Z,12.32
2022-12-18T18:19:36.031Z,12.48
2022-12-18T18:22:03.823Z,12.65
2022-12-18T18:24:33.818Z,12.40
2022-12-18T18:27:01.330Z,12.85
2022-12-18T18:29:32.597Z,13.10
2022-12-18T18:32:00.397Z,12.48
2022-12-18T18:34:31.829Z,12.75
2022-12-18T18:37:02.153Z,12.18
2022-12-18T18:39:30.600Z,12.93
2022-12-18T18:41:58.556Z,13.30
2022-12-18T18:44:26.553Z,13.70
2022-12-18T18:46:58.406Z,13.20
2022-12-18T18:49:28.079Z,13.60
2022-12-18T18:51:57.755Z,13.45
2022-12-18T18:54:26.708Z,13.30
2022-12-18T19:02:13.792Z,13.45
2022-12-18T19:04:46.136Z,13.30
2022-12-18T19:07:22.550Z,13.55
2022-12-18T19:09:57.900Z,13.50
2022-12-18T19:12:49.228Z,13.25
2022-12-18T19:15:17.226Z,13.90
2022-12-18T19:17:46.977Z,13.55
2022-12-18T19:20:15.456Z,14.00
2022-12-18T19:22:42.942Z,13.63
2022-12-18T19:25:11.283Z,13.20
2022-12-18T19:27:40.289Z,13.68
2022-12-18T19:30:08.514Z,13.50
2022-12-18T19:35:03.446Z,12.65
2022-12-18T19:37:31.891Z,12.98
2022-12-18T19:39:59.308Z,13.25
2022-12-18T19:42:35.335Z,14.88
2022-12-18T19:45:03.212Z,13.20
2022-12-18T19:47:31.625Z,14.00
2022-12-18T19:49:59.130Z,13.50
2022-12-18T19:52:26.609Z,12.70
2022-12-18T19:54:54.372Z,13.45
2022-12-18T19:57:21.772Z,11.57
2022-12-18T19:59:49.426Z,12.90
2022-12-18T20:02:19.781Z,12.07
2022-12-18T20:04:47.471Z,12.23
2022-12-18T20:07:15.022Z,11.10
2022-12-18T20:09:42.563Z,9.93
2022-12-18T20:14:38.501Z,8.18
2022-12-18T20:17:06.781Z,8.30
2022-12-18T20:19:35.108Z,7.50
2022-12-18T20:22:02.860Z,8.02
2022-12-18T20:24:30.510Z,8.15
2022-12-18T20:26:57.941Z,7.43
2022-12-18T20:29:25.543Z,6.82
2022-12-18T20:31:53.443Z,6.57
2022-12-18T20:34:20.838Z,5.95
2022-12-18T20:36:49.155Z,6.07
2022-12-18T20:39:18.136Z,6.32
2022-12-18T20:41:46.568Z,6.40
2022-12-18T20:44:21.415Z,6.13
2022-12-18T20:46:58.294Z,5.85
2022-12-18T20:49:27.078Z,6.00
2022-12-18T20:51:56.594Z,5.90
2022-12-18T20:54:26.977Z,6.15
2022-12-18T20:56:55.047Z,5.72
2022-12-18T20:59:23.447Z,5.25
2022-12-18T21:04:20.789Z,5.97
2022-12-18T21:06:53.392Z,5.72
2022-12-18T21:09:28.287Z,6.50
2022-12-18T21:12:21.640Z,5.93
2022-12-18T21:14:49.360Z,6.15
2022-12-18T21:17:18.060Z,6.25
2022-12-18T21:19:45.548Z,6.10
2022-12-18T21:24:46.182Z,6.20
2022-12-18T21:27:14.215Z,7.10
2022-12-18T21:29:45.530Z,7.32
2022-12-18T21:32:14.320Z,6.47
2022-12-18T21:34:47.493Z,6.22
2022-12-18T21:37:15.998Z,5.60
2022-12-18T21:39:43.406Z,6.05
2022-12-18T21:42:31.120Z,6.18
2022-12-18T21:44:58.713Z,5.68
2022-12-18T21:47:26.157Z,5.90
2022-12-18T21:49:54.188Z,5.32
2022-12-18T21:52:31.378Z,5.75
2022-12-18T21:55:08.555Z,4.82
2022-12-18T21:57:40.036Z,5.38
2022-12-18T22:00:18.610Z,4.85
2022-12-18T22:02:48.006Z,4.47
2022-12-18T22:05:15.753Z,3.80
2022-12-18T22:07:43.181Z,4.10
2022-12-18T22:10:10.658Z,4.20
2022-12-18T22:12:43.677Z,4.28
2022-12-18T22:15:21.441Z,4.18
2022-12-18T22:17:58.727Z,3.97
2022-12-18T22:20:30.207Z,3.58
2022-12-18T22:22:58.242Z,3.60
2022-12-18T22:25:25.937Z,3.30
2022-12-18T22:28:11.702Z,3.55
2022-12-18T22:30:39.261Z,3.35
2022-12-18T22:33:06.740Z,3.78
2022-12-18T22:35:34.277Z,2.92
2022-12-18T22:38:02.038Z,3.60
2022-12-18T22:40:30.019Z,2.88
2022-12-18T22:42:57.770Z,3.08
2022-12-18T22:45:26.744Z,3.05
2022-12-18T22:47:54.328Z,3.17
2022-12-18T22:50:22.017Z,3.70
2022-12-18T22:52:49.378Z,2.90
2022-12-18T22:55:16.894Z,2.70
2022-12-18T22:57:48.820Z,2.60
2022-12-18T23:00:18.681Z,5.65
2022-12-18T23:02:57.866Z,2.65
2022-12-18T23:05:28.636Z,2.55
2022-12-18T23:10:38.346Z,2.15
2022-12-18T23:13:05.724Z,1.98
2022-12-18T23:15:33.140Z,1.88
2022-12-18T23:18:00.915Z,2.00
2022-12-18T23:20:28.511Z,1.90
2022-12-18T23:22:55.960Z,3.42
2022-12-18T23:25:23.693Z,1.75
2022-12-18T23:27:51.373Z,2.17
2022-12-18T23:30:19.023Z,1.77
2022-12-18T23:32:46.473Z,1.88
2022-12-18T23:35:15.527Z,2.03
2022-12-18T23:38:00.180Z,1.90
2022-12-18T23:40:29.706Z,1.67
2022-12-18T23:42:57.150Z,2.20
2022-12-18T23:45:24.525Z,2.10
2022-12-18T23:47:51.944Z,2.20
2022-12-18T23:50:19.545Z,2.03
2022-12-18T23:52:51.149Z,2.15
2022-12-18T23:55:19.236Z,1.75
2022-12-18T23:57:46.569Z,1.88
